createdAt,value
2022-10-20T00:01:15.341Z,62.00
2022-10-20T00:03:44.039Z,64.63
2022-10-20T00:06:14.407Z,65.86
2022-10-20T00:08:45.189Z,66.14
2022-10-20T00:11:15.825Z,66.32
2022-10-20T00:13:45.629Z,65.89
2022-10-20T00:16:14.475Z,65.02
2022-10-20T00:18:43.481Z,65.47
2022-10-20T00:21:14.781Z,65.68
2022-10-20T00:23:44.490Z,66.06
2022-10-20T00:26:14.905Z,66.09
2022-10-20T00:28:43.672Z,64.51
2022-10-20T00:31:12.609Z,64.22
2022-10-20T00:33:41.283Z,64.17
2022-10-20T00:36:12.188Z,63.73
2022-10-20T00:38:40.227Z,63.75
2022-10-20T00:41:09.799Z,62.15
2022-10-20T00:43:46.570Z,62.14
2022-10-20T00:46:17.341Z,62.72
2022-10-20T00:48:50.095Z,63.20
2022-10-20T00:51:21.404Z,63.92
2022-10-20T00:53:51.980Z,64.14
2022-10-20T00:56:22.390Z,64.85
2022-10-20T00:58:51.465Z,64.68
2022-10-20T01:01:20.288Z,65.29
2022-10-20T01:03:51.025Z,65.99
2022-10-20T01:06:22.225Z,66.78
2022-10-20T01:08:51.591Z,67.03
2022-10-20T01:11:31.408Z,67.40
2022-10-20T01:14:11.125Z,67.45
2022-10-20T01:16:48.752Z,67.80
2022-10-20T01:19:34.495Z,68.22
2022-10-20T01:22:18.074Z,68.34
2022-10-20T01:25:07.664Z,68.41
2022-10-20T01:27:39.793Z,69.04
2022-10-20T01:30:12.231Z,68.94
2022-10-20T01:32:55.907Z,68.02
2022-10-20T01:35:34.307Z,66.73
2022-10-20T01:38:12.267Z,66.60
2022-10-20T01:40:45.840Z,67.04
2022-10-20T01:43:18.662Z,66.41
2022-10-20T01:45:49.815Z,66.57
2022-10-20T01:48:21.418Z,66.92
2022-10-20T01:50:51.052Z,67.00
2022-10-20T01:53:19.149Z,67.88
2022-10-20T01:55:47.217Z,67.45
2022-10-20T01:59:02.363Z,67.78
2022-10-20T02:01:41.263Z,68.25
2022-10-20T02:04:10.697Z,67.78
2022-10-20T02:06:45.035Z,68.67
2022-10-20T02:09:20.119Z,68.79
2022-10-20T02:11:57.076Z,69.07
2022-10-20T02:14:26.848Z,68.95
2022-10-20T02:17:00.181Z,68.97
2022-10-20T02:19:33.498Z,68.99
2022-10-20T02:22:02.865Z,69.14
2022-10-20T02:24:35.755Z,69.14
2022-10-20T02:27:08.676Z,68.64
2022-10-20T02:29:43.519Z,68.60
2022-10-20T02:32:13.750Z,67.31
2022-10-20T02:34:42.617Z,66.67
2022-10-20T02:37:11.082Z,66.13
2022-10-20T02:39:39.228Z,65.74
2022-10-20T02:42:07.333Z,65.74
2022-10-20T02:44:35.488Z,65.61
2022-10-20T02:47:04.966Z,65.10
2022-10-20T02:49:32.982Z,64.80
2022-10-20T02:52:00.979Z,65.26
2022-10-20T02:54:29.028Z,65.49
2022-10-20T02:56:57.266Z,65.43
2022-10-20T02:59:25.284Z,65.96
2022-10-20T03:01:53.354Z,66.35
2022-10-20T03:04:22.866Z,66.18
2022-10-20T03:06:51.144Z,66.18
2022-10-20T03:09:19.164Z,66.27
2022-10-20T03:11:47.198Z,66.50
2022-10-20T03:14:16.973Z,66.58
2022-10-20T03:16:45.162Z,67.03
2022-10-20T03:19:13.324Z,68.13
2022-10-20T03:21:42.902Z,68.57
2022-10-20T03:24:10.944Z,69.70
2022-10-20T03:26:39.327Z,68.61
2022-10-20T03:29:07.441Z,68.40
2022-10-20T03:31:35.956Z,67.56
2022-10-20T03:34:05.030Z,67.65
2022-10-20T03:36:33.274Z,68.10
2022-10-20T03:39:02.672Z,68.42
2022-10-20T03:41:30.724Z,68.50
2022-10-20T03:43:58.896Z,69.12
2022-10-20T03:46:27.036Z,68.91
2022-10-20T03:48:55.139Z,69.44
2022-10-20T03:51:23.193Z,69.32
2022-10-20T03:53:51.230Z,69.53
2022-10-20T03:56:22.277Z,69.37
2022-10-20T03:58:50.413Z,69.50
2022-10-20T04:01:21.344Z,69.74
2022-10-20T04:03:49.454Z,69.96
2022-10-20T04:06:17.559Z,69.60
2022-10-20T04:08:45.811Z,69.52
2022-10-20T04:11:14.184Z,69.55
2022-10-20T04:13:43.620Z,68.86
2022-10-20T04:16:12.015Z,68.74
2022-10-20T04:18:40.051Z,68.22
2022-10-20T04:21:08.133Z,67.94
2022-10-20T04:23:36.223Z,68.02
2022-10-20T04:26:09.725Z,67.32
2022-10-20T04:28:37.781Z,67.18
2022-10-20T04:31:07.985Z,66.95
2022-10-20T04:33:36.578Z,67.69
2022-10-20T04:36:07.154Z,67.97
2022-10-20T04:38:36.135Z,68.06
2022-10-20T04:41:05.643Z,67.58
2022-10-20T04:43:34.577Z,67.69
2022-10-20T04:46:06.994Z,68.18
2022-10-20T04:48:38.443Z,68.72
2022-10-20T04:51:08.515Z,66.53
2022-10-20T04:53:36.876Z,64.70
2022-10-20T04:56:06.292Z,63.22
2022-10-20T04:58:35.413Z,63.46
2022-10-20T05:01:05.271Z,63.62
2022-10-20T05:03:33.614Z,63.28
2022-10-20T05:06:15.381Z,62.96
2022-10-20T05:08:45.050Z,63.28
2022-10-20T05:11:13.764Z,62.59
2022-10-20T05:13:41.855Z,62.34
2022-10-20T05:16:11.113Z,62.24
2022-10-20T05:18:40.358Z,61.97
2022-10-20T05:21:10.239Z,61.65
2022-10-20T05:23:40.896Z,61.21
2022-10-20T05:26:11.543Z,60.34
2022-10-20T05:28:40.125Z,59.31
2022-10-20T05:31:09.962Z,59.04
2022-10-20T05:33:41.899Z,58.82
2022-10-20T05:36:11.141Z,57.39
2022-10-20T05:38:40.956Z,56.63
2022-10-20T05:41:10.702Z,56.57
2022-10-20T05:43:39.487Z,55.67
2022-10-20T05:46:08.468Z,55.07
2022-10-20T05:48:42.809Z,54.94
2022-10-20T05:51:14.920Z,54.29
2022-10-20T05:53:47.024Z,53.49
2022-10-20T05:56:17.932Z,54.25
2022-10-20T05:58:47.347Z,53.53
2022-10-20T06:01:19.191Z,53.46
2022-10-20T06:03:49.399Z,53.10
2022-10-20T06:06:17.712Z,52.60
2022-10-20T06:08:47.737Z,53.02
2022-10-20T06:11:16.728Z,53.19
2022-10-20T06:13:48.469Z,53.47
2022-10-20T06:16:22.078Z,54.11
2022-10-20T06:18:50.599Z,53.61
2022-10-20T06:21:20.578Z,54.23
2022-10-20T06:23:51.047Z,54.51
2022-10-20T06:26:21.233Z,55.04
2022-10-20T06:28:52.240Z,54.55
2022-10-20T06:31:22.248Z,54.41
2022-10-20T06:33:51.489Z,54.19
2022-10-20T06:36:20.745Z,54.02
2022-10-20T06:38:53.783Z,53.97
2022-10-20T06:41:21.917Z,53.35
2022-10-20T06:43:50.330Z,53.51
2022-10-20T06:46:19.763Z,53.54
2022-10-20T06:48:47.881Z,53.12
2022-10-20T06:51:18.951Z,53.35
2022-10-20T06:53:47.452Z,53.95
2022-10-20T06:56:18.406Z,52.92
2022-10-20T06:58:49.326Z,52.47
2022-10-20T07:01:21.077Z,52.39
2022-10-20T07:03:49.451Z,52.70
2022-10-20T07:06:20.491Z,52.80
2022-10-20T07:08:49.198Z,52.44
2022-10-20T07:11:20.740Z,52.73
2022-10-20T07:13:49.502Z,52.96
2022-10-20T07:16:20.068Z,52.93
2022-10-20T07:18:48.912Z,53.48
2022-10-20T07:21:19.031Z,52.90
2022-10-20T07:23:47.853Z,53.85
2022-10-20T07:26:19.833Z,53.99
2022-10-20T07:28:54.760Z,54.40
2022-10-20T07:31:26.052Z,54.03
2022-10-20T07:34:13.086Z,53.98
2022-10-20T07:36:44.254Z,54.09
2022-10-20T07:39:14.310Z,54.34
2022-10-20T07:41:47.459Z,54.59
2022-10-20T07:44:16.648Z,55.09
2022-10-20T07:46:44.848Z,56.52
2022-10-20T07:52:01.500Z,57.93
2022-10-20T07:54:29.701Z,57.39
2022-10-20T07:56:59.194Z,58.44
2022-10-20T07:59:27.461Z,57.70
2022-10-20T08:01:56.269Z,55.80
2022-10-20T08:04:27.126Z,55.58
2022-10-20T08:06:55.466Z,55.21
2022-10-20T08:09:23.556Z,54.73
2022-10-20T08:11:55.326Z,53.38
2022-10-20T08:14:27.719Z,52.82
2022-10-20T08:17:06.418Z,52.40
2022-10-20T08:19:44.784Z,52.04
2022-10-20T08:22:13.093Z,52.15
2022-10-20T08:24:41.175Z,51.58
2022-10-20T08:27:09.559Z,50.62
2022-10-20T08:29:39.309Z,50.48
2022-10-20T08:32:07.352Z,49.60
2022-10-20T08:34:35.432Z,48.51
2022-10-20T08:37:03.587Z,48.45
2022-10-20T08:39:31.732Z,48.42
2022-10-20T08:42:09.593Z,48.16
2022-10-20T08:44:42.736Z,48.29
2022-10-20T08:47:29.232Z,48.25
2022-10-20T08:50:01.230Z,47.52
2022-10-20T08:52:29.627Z,47.35
2022-10-20T08:54:59.011Z,47.20
2022-10-20T08:57:33.364Z,46.80
2022-10-20T09:00:15.837Z,46.84
2022-10-20T09:02:44.353Z,45.89
2022-10-20T09:05:16.727Z,45.35
2022-10-20T09:07:50.016Z,44.52
2022-10-20T09:10:34.638Z,43.23
2022-10-20T09:13:08.020Z,44.25
2022-10-20T09:15:39.429Z,43.69
2022-10-20T09:18:12.816Z,43.31
2022-10-20T09:20:47.824Z,43.35
2022-10-20T09:23:39.316Z,43.62
2022-10-20T09:26:04.407Z,43.48
2022-10-20T09:28:38.546Z,43.89
2022-10-20T09:31:28.963Z,44.04
2022-10-20T09:33:57.153Z,43.30
2022-10-20T09:36:30.398Z,42.95
2022-10-20T09:38:58.994Z,41.56
2022-10-20T09:41:29.547Z,41.83
2022-10-20T09:44:01.565Z,41.76
2022-10-20T09:46:33.341Z,40.32
2022-10-20T09:49:01.993Z,41.15
2022-10-20T09:51:32.130Z,40.55
2022-10-20T09:54:03.547Z,39.57
2022-10-20T09:56:35.005Z,39.35
2022-10-20T09:59:07.193Z,40.10
2022-10-20T10:01:53.430Z,40.30
2022-10-20T10:04:33.373Z,39.88
2022-10-20T10:07:01.548Z,39.86
2022-10-20T10:09:34.224Z,39.54
2022-10-20T10:12:05.932Z,39.06
2022-10-20T10:14:36.583Z,38.96
2022-10-20T10:17:06.361Z,38.48
2022-10-20T10:19:35.607Z,38.69
2022-10-20T10:22:05.303Z,38.83
2022-10-20T10:24:46.522Z,39.40
2022-10-20T10:27:23.596Z,38.51
2022-10-20T10:29:52.096Z,38.88
2022-10-20T10:32:26.182Z,37.63
2022-10-20T10:35:13.864Z,37.92
2022-10-20T10:37:44.970Z,37.23
2022-10-20T10:40:17.660Z,37.10
2022-10-20T10:42:57.203Z,37.80
2022-10-20T10:45:43.447Z,38.03
2022-10-20T10:48:41.796Z,37.84
2022-10-20T10:51:18.431Z,38.12
2022-10-20T10:54:00.849Z,38.21
2022-10-20T10:56:37.940Z,37.58
2022-10-20T10:59:12.501Z,38.16
2022-10-20T11:02:04.299Z,38.27
2022-10-20T11:05:08.491Z,38.17
2022-10-20T11:07:43.315Z,38.54
2022-10-20T11:10:22.837Z,38.72
2022-10-20T11:13:03.651Z,39.20
2022-10-20T11:15:48.278Z,39.47
2022-10-20T11:18:32.158Z,39.31
2022-10-20T11:21:25.262Z,39.98
2022-10-20T11:24:18.783Z,40.28
2022-10-20T11:26:52.245Z,40.61
2022-10-20T11:29:29.705Z,40.84
2022-10-20T11:32:04.215Z,40.56
2022-10-20T11:34:37.119Z,40.20
2022-10-20T11:37:16.510Z,39.51
2022-10-20T11:39:50.743Z,39.12
2022-10-20T11:42:27.880Z,39.22
2022-10-20T11:44:58.111Z,39.67
2022-10-20T11:47:33.375Z,38.88
2022-10-20T11:50:01.745Z,38.81
2022-10-20T11:53:30.359Z,38.54
2022-10-20T11:56:25.644Z,37.63
2022-10-20T11:59:33.088Z,37.86
2022-10-20T12:02:25.381Z,36.98
2022-10-20T12:05:24.773Z,37.76
2022-10-20T12:08:29.994Z,37.58
2022-10-20T12:11:07.095Z,37.44
2022-10-20T12:13:42.253Z,37.41
2022-10-20T12:16:10.418Z,38.33
2022-10-20T12:18:39.075Z,38.23
2022-10-20T12:21:09.135Z,38.32
2022-10-20T12:24:05.870Z,38.39
2022-10-20T12:27:17.863Z,38.83
2022-10-20T12:29:54.765Z,38.41
2022-10-20T12:32:37.262Z,38.24
2022-10-20T12:35:43.331Z,38.19
2022-10-20T12:38:19.236Z,37.96
2022-10-20T12:40:55.193Z,39.03
2022-10-20T12:43:37.439Z,38.24
2022-10-20T12:46:10.403Z,38.12
2022-10-20T12:48:45.892Z,38.49
2022-10-20T12:51:25.641Z,37.87
2022-10-20T12:53:57.924Z,38.04
2022-10-20T12:56:34.793Z,38.46
2022-10-20T12:59:25.276Z,37.78
2022-10-20T13:02:41.853Z,38.23
2022-10-20T13:05:45.242Z,38.53
2022-10-20T13:08:23.763Z,38.47
2022-10-20T13:10:53.934Z,38.48
2022-10-20T13:13:46.063Z,38.72
2022-10-20T13:16:22.151Z,38.38
2022-10-20T13:18:51.738Z,38.30
2022-10-20T13:21:32.598Z,38.09
2022-10-20T13:24:20.367Z,38.45
2022-10-20T13:26:51.288Z,39.38
2022-10-20T13:29:25.859Z,39.42
2022-10-20T13:32:04.747Z,39.17
2022-10-20T13:34:42.559Z,39.61
2022-10-20T13:37:28.478Z,39.63
2022-10-20T13:40:08.173Z,39.96
2022-10-20T13:42:46.424Z,39.82
2022-10-20T13:45:24.471Z,39.94
2022-10-20T13:47:58.132Z,39.85
2022-10-20T13:50:31.170Z,39.44
2022-10-20T13:53:03.412Z,39.37
2022-10-20T13:55:52.884Z,39.05
2022-10-20T13:58:23.951Z,39.38
2022-10-20T14:01:01.610Z,39.70
2022-10-20T14:03:30.831Z,39.82
2022-10-20T14:06:00.098Z,39.79
2022-10-20T14:08:28.299Z,40.07
2022-10-20T14:10:59.643Z,40.33
2022-10-20T14:13:30.722Z,40.52
2022-10-20T14:16:02.069Z,40.41
2022-10-20T14:18:31.956Z,40.25
2022-10-20T14:21:02.860Z,40.45
2022-10-20T14:23:35.911Z,40.78
2022-10-20T14:26:05.906Z,41.27
2022-10-20T14:28:36.445Z,41.13
2022-10-20T14:31:07.596Z,41.23
2022-10-20T14:33:41.800Z,41.32
2022-10-20T14:36:20.849Z,41.65
2022-10-20T14:38:50.603Z,41.75
2022-10-20T14:41:27.097Z,42.26
2022-10-20T14:44:03.383Z,42.06
2022-10-20T14:46:37.958Z,41.76
2022-10-20T14:49:16.466Z,41.92
2022-10-20T14:51:48.256Z,41.86
2022-10-20T14:54:26.191Z,42.13
2022-10-20T14:56:56.387Z,41.99
2022-10-20T14:59:27.054Z,42.04
2022-10-20T15:02:08.533Z,42.61
2022-10-20T15:04:37.730Z,42.63
2022-10-20T15:07:13.422Z,42.77
2022-10-20T15:09:44.835Z,42.90
2022-10-20T15:12:18.984Z,43.53
2022-10-20T15:14:49.767Z,43.67
2022-10-20T15:17:37.682Z,43.60
2022-10-20T15:20:32.440Z,43.56
2022-10-20T15:23:02.021Z,43.81
2022-10-20T15:25:32.163Z,43.73
2022-10-20T15:28:00.756Z,44.07
2022-10-20T15:30:29.053Z,44.35
2022-10-20T15:32:59.306Z,44.35
2022-10-20T15:35:30.860Z,44.68
2022-10-20T15:37:59.213Z,44.41
2022-10-20T15:40:27.258Z,44.42
2022-10-20T15:42:55.324Z,44.49
2022-10-20T15:45:25.803Z,44.61
2022-10-20T15:47:53.864Z,45.03
2022-10-20T15:50:24.873Z,45.36
2022-10-20T15:52:54.276Z,45.76
2022-10-20T15:55:27.764Z,46.12
2022-10-20T15:57:56.578Z,45.85
2022-10-20T16:00:27.577Z,45.97
2022-10-20T16:02:55.766Z,45.95
2022-10-20T16:05:27.100Z,45.78
2022-10-20T16:07:56.394Z,46.32
2022-10-20T16:10:28.585Z,46.16
2022-10-20T16:12:58.006Z,45.80
2022-10-20T16:15:30.279Z,45.94
2022-10-20T16:17:59.830Z,46.21
2022-10-20T16:20:29.316Z,46.40
2022-10-20T16:22:57.540Z,46.87
2022-10-20T16:25:25.660Z,47.14
2022-10-20T16:27:53.969Z,47.49
2022-10-20T16:30:22.119Z,47.56
2022-10-20T16:32:50.351Z,48.39
2022-10-20T16:35:18.593Z,48.60
2022-10-20T16:37:48.344Z,48.63
2022-10-20T16:40:16.581Z,48.53
2022-10-20T16:42:44.702Z,48.45
2022-10-20T16:45:13.126Z,48.98
2022-10-20T16:47:41.371Z,49.13
2022-10-20T16:50:09.937Z,49.09
2022-10-20T16:52:38.025Z,49.10
2022-10-20T16:55:08.489Z,49.12
2022-10-20T16:57:39.741Z,49.24
2022-10-20T17:00:10.065Z,49.13
2022-10-20T17:02:38.591Z,49.41
2022-10-20T17:05:09.340Z,49.28
2022-10-20T17:07:38.546Z,49.84
2022-10-20T17:10:09.389Z,49.36
2022-10-20T17:12:37.484Z,49.69
2022-10-20T17:15:06.339Z,49.62
2022-10-20T17:17:34.735Z,49.71
2022-10-20T17:20:03.064Z,49.68
2022-10-20T17:22:31.150Z,49.55
2022-10-20T17:24:59.468Z,49.35
2022-10-20T17:27:29.035Z,49.46
2022-10-20T17:29:57.068Z,49.51
2022-10-20T17:32:25.322Z,49.24
2022-10-20T17:34:53.361Z,49.52
2022-10-20T17:37:21.410Z,49.75
2022-10-20T17:39:49.988Z,49.86
2022-10-20T17:42:18.255Z,49.55
2022-10-20T17:44:47.785Z,49.94
2022-10-20T17:47:15.885Z,49.90
2022-10-20T17:49:43.966Z,49.98
2022-10-20T17:52:12.063Z,49.90
2022-10-20T17:54:40.113Z,50.36
2022-10-20T17:57:08.236Z,50.56
2022-10-20T17:59:47.294Z,50.47
2022-10-20T18:02:27.135Z,50.81
2022-10-20T18:04:55.238Z,50.86
2022-10-20T18:07:23.381Z,50.96
2022-10-20T18:09:51.688Z,50.97
2022-10-20T18:12:19.907Z,51.13
2022-10-20T18:14:48.275Z,50.73
2022-10-20T18:17:16.556Z,50.74
2022-10-20T18:19:46.103Z,50.70
2022-10-20T18:22:14.172Z,50.65
2022-10-20T18:24:42.658Z,50.70
2022-10-20T18:27:11.109Z,50.53
2022-10-20T18:29:39.244Z,50.54
2022-10-20T18:32:07.314Z,50.66
2022-10-20T18:34:35.374Z,50.50
2022-10-20T18:37:05.001Z,50.50
2022-10-20T18:39:33.081Z,50.40
2022-10-20T18:42:01.288Z,50.35
2022-10-20T18:44:30.592Z,50.48
2022-10-20T18:46:59.531Z,50.33
2022-10-20T18:49:27.992Z,50.56
2022-10-20T18:51:56.152Z,50.46
2022-10-20T18:54:25.945Z,50.64
2022-10-20T18:56:54.274Z,50.62
2022-10-20T18:59:23.008Z,50.60
2022-10-20T19:01:51.245Z,51.24
2022-10-20T19:04:19.390Z,51.02
2022-10-20T19:06:49.154Z,50.71
2022-10-20T19:09:19.645Z,50.27
2022-10-20T19:14:23.473Z,50.23
2022-10-20T19:16:51.914Z,50.57
2022-10-20T19:19:19.988Z,50.24
2022-10-20T19:21:48.072Z,50.22
2022-10-20T19:24:19.115Z,50.12
2022-10-20T19:26:57.516Z,50.31
2022-10-20T19:29:30.811Z,50.62
2022-10-20T19:32:01.035Z,50.43
2022-10-20T19:34:31.408Z,50.84
2022-10-20T19:37:00.604Z,50.76
2022-10-20T19:39:32.189Z,50.62
2022-10-20T19:42:03.213Z,50.57
2022-10-20T19:44:32.215Z,50.56
2022-10-20T19:47:00.471Z,50.86
2022-10-20T19:49:28.847Z,50.79
2022-10-20T19:51:57.125Z,50.96
2022-10-20T19:54:26.284Z,50.87
2022-10-20T19:56:54.526Z,51.03
2022-10-20T19:59:24.179Z,51.39
2022-10-20T20:01:52.733Z,51.43
2022-10-20T20:04:21.333Z,51.73
2022-10-20T20:06:49.623Z,51.65
2022-10-20T20:09:18.547Z,51.90
2022-10-20T20:11:46.666Z,51.88
2022-10-20T20:14:16.466Z,52.00
2022-10-20T20:16:46.977Z,52.13
2022-10-20T20:19:16.377Z,52.59
2022-10-20T20:21:44.573Z,52.03
2022-10-20T20:24:14.228Z,52.21
2022-10-20T20:26:42.393Z,52.42
2022-10-20T20:29:11.029Z,52.17
2022-10-20T20:31:39.147Z,52.42
2022-10-20T20:34:08.884Z,52.29
2022-10-20T20:36:37.015Z,51.85
2022-10-20T20:39:07.172Z,51.47
2022-10-20T20:41:35.225Z,50.83
2022-10-20T20:44:08.250Z,50.64
2022-10-20T20:46:36.744Z,50.38
2022-10-20T20:49:05.124Z,49.52
2022-10-20T20:51:34.794Z,48.76
2022-10-20T20:54:03.297Z,47.76
2022-10-20T20:56:32.033Z,47.51
2022-10-20T20:59:00.092Z,47.59
2022-10-20T21:01:31.595Z,47.14
2022-10-20T21:04:01.515Z,46.62
2022-10-20T21:06:33.988Z,46.11
2022-10-20T21:09:13.157Z,46.51
2022-10-20T21:11:42.951Z,46.61
2022-10-20T21:14:11.268Z,46.43
2022-10-20T21:16:39.778Z,46.39
2022-10-20T21:19:09.867Z,46.54
2022-10-20T21:21:40.124Z,46.27
2022-10-20T21:24:08.371Z,46.40
2022-10-20T21:26:38.044Z,46.15
2022-10-20T21:29:06.636Z,45.98
2022-10-20T21:31:34.851Z,46.47
2022-10-20T21:34:04.877Z,46.13
2022-10-20T21:36:35.520Z,45.78
2022-10-20T21:39:06.612Z,45.81
2022-10-20T21:41:36.202Z,45.61
2022-10-20T21:44:07.759Z,46.41
2022-10-20T21:46:39.137Z,45.62
2022-10-20T21:49:09.653Z,45.73
2022-10-20T21:51:39.941Z,45.85
2022-10-20T21:54:09.755Z,45.84
2022-10-20T21:56:40.231Z,45.54
2022-10-20T21:59:15.679Z,45.34
2022-10-20T22:01:43.825Z,45.58
2022-10-20T22:04:11.992Z,46.13
2022-10-20T22:06:40.541Z,45.95
2022-10-20T22:09:09.527Z,46.04
2022-10-20T22:11:40.450Z,46.27
2022-10-20T22:14:10.171Z,46.12
2022-10-20T22:16:40.687Z,46.38
2022-10-20T22:19:12.512Z,45.96
2022-10-20T22:21:42.209Z,45.77
2022-10-20T22:24:10.643Z,46.38
2022-10-20T22:26:39.051Z,45.73
2022-10-20T22:29:09.599Z,45.73
2022-10-20T22:31:40.426Z,45.38
2022-10-20T22:34:08.922Z,44.52
2022-10-20T22:36:37.246Z,44.03
2022-10-20T22:39:05.564Z,43.94
2022-10-20T22:41:33.975Z,43.55
2022-10-20T22:44:02.042Z,43.22
2022-10-20T22:46:30.264Z,43.32
2022-10-20T22:48:59.814Z,42.87
2022-10-20T22:51:27.837Z,42.42
2022-10-20T22:53:55.879Z,42.04
2022-10-20T22:56:24.084Z,41.93
2022-10-20T22:58:53.731Z,41.22
2022-10-20T23:01:23.429Z,41.16
2022-10-20T23:03:52.057Z,41.38
2022-10-20T23:06:23.824Z,41.04
2022-10-20T23:08:53.504Z,40.65
2022-10-20T23:11:23.832Z,40.69
2022-10-20T23:13:52.325Z,40.24
2022-10-20T23:16:21.016Z,40.22
2022-10-20T23:18:49.316Z,40.36
2022-10-20T23:21:18.103Z,40.18
2022-10-20T23:23:47.872Z,40.06
2022-10-20T23:26:16.283Z,40.10
2022-10-20T23:28:44.400Z,40.00
2022-10-20T23:31:21.192Z,39.67
2022-10-20T23:33:51.080Z,39.85
2022-10-20T23:36:19.153Z,39.59
2022-10-20T23:38:48.889Z,39.98
2022-10-20T23:41:17.346Z,40.59
2022-10-20T23:43:45.396Z,40.61
2022-10-20T23:46:13.645Z,40.28
2022-10-20T23:48:42.147Z,40.73
2022-10-20T23:51:10.451Z,40.93
2022-10-20T23:53:38.627Z,40.76
2022-10-20T23:56:08.727Z,40.93
2022-10-20T23:58:37.296Z,40.97
